sensor_id;sensor_type;location;lat;lon;timestamp;temperature;humidity
25200;DHT22;33094;48.782;9.162;2022-09-09T00:11:09;16.40;99.90
25200;DHT22;33094;48.782;9.162;2022-09-09T00:13:39;16.40;99.90
25200;DHT22;33094;48.782;9.162;2022-09-09T00:16:12;16.40;99.90
25200;DHT22;33094;48.782;9.162;2022-09-09T00:33:28;16.60;99.90
25200;DHT22;33094;48.782;9.162;2022-09-09T00:40:49;16.70;99.90
25200;DHT22;33094;48.782;9.162;2022-09-09T01:05:29;16.90;99.90
25200;DHT22;33094;48.782;9.162;2022-09-09T01:10:27;17.00;99.90
25200;DHT22;33094;48.782;9.162;2022-09-09T01:17:48;16.90;99.90
25200;DHT22;33094;48.782;9.162;2022-09-09T01:20:26;17.00;99.90
25200;DHT22;33094;48.782;9.162;2022-09-09T01:27:51;16.90;99.90
25200;DHT22;33094;48.782;9.162;2022-09-09T01:37:36;17.00;99.90
25200;DHT22;33094;48.782;9.162;2022-09-09T01:57:06;16.90;99.90
25200;DHT22;33094;48.782;9.162;2022-09-09T02:06:53;16.80;99.90
25200;DHT22;33094;48.782;9.162;2022-09-09T02:09:21;16.70;99.90
25200;DHT22;33094;48.782;9.162;2022-09-09T02:11:47;16.70;99.90
25200;DHT22;33094;48.782;9.162;2022-09-09T02:14:16;16.60;99.90
25200;DHT22;33094;48.782;9.162;2022-09-09T02:21:44;16.40;99.90
25200;DHT22;33094;48.782;9.162;2022-09-09T02:24:10;16.20;99.90
25200;DHT22;33094;48.782;9.162;2022-09-09T02:26:39;16.20;99.90
25200;DHT22;33094;48.782;9.162;2022-09-09T02:29:08;16.10;99.90
25200;DHT22;33094;48.782;9.162;2022-09-09T02:31:34;16.20;99.90
25200;DHT22;33094;48.782;9.162;2022-09-09T02:34:02;16.10;99.90
25200;DHT22;33094;48.782;9.162;2022-09-09T02:36:29;16.10;99.90
25200;DHT22;33094;48.782;9.162;2022-09-09T02:38:56;16.10;99.90
25200;DHT22;33094;48.782;9.162;2022-09-09T02:41:32;16.10;99.90
25200;DHT22;33094;48.782;9.162;2022-09-09T02:43:59;16.20;99.90
25200;DHT22;33094;48.782;9.162;2022-09-09T02:51:24;16.30;99.90
25200;DHT22;33094;48.782;9.162;2022-09-09T02:54:09;16.10;99.90
25200;DHT22;33094;48.782;9.162;2022-09-09T02:59:03;16.00;99.90
25200;DHT22;33094;48.782;9.162;2022-09-09T03:06:20;16.00;99.90
25200;DHT22;33094;48.782;9.162;2022-09-09T03:20:59;16.20;99.90
25200;DHT22;33094;48.782;9.162;2022-09-09T03:23:25;16.10;99.90
25200;DHT22;33094;48.782;9.162;2022-09-09T03:25:50;16.00;99.90
25200;DHT22;33094;48.782;9.162;2022-09-09T03:28:17;15.90;99.90
25200;DHT22;33094;48.782;9.162;2022-09-09T03:30:42;15.80;99.90
25200;DHT22;33094;48.782;9.162;2022-09-09T03:33:08;15.80;99.90
25200;DHT22;33094;48.782;9.162;2022-09-09T03:35:33;15.90;99.90
25200;DHT22;33094;48.782;9.162;2022-09-09T03:37:59;15.90;99.90
25200;DHT22;33094;48.782;9.162;2022-09-09T03:40:26;15.90;99.90
25200;DHT22;33094;48.782;9.162;2022-09-09T03:42:51;16.10;99.90
25200;DHT22;33094;48.782;9.162;2022-09-09T03:45:17;16.30;99.90
25200;DHT22;33094;48.782;9.162;2022-09-09T03:47:42;16.40;99.90
25200;DHT22;33094;48.782;9.162;2022-09-09T03:50:08;16.50;99.90
25200;DHT22;33094;48.782;9.162;2022-09-09T03:52:36;16.40;99.90
25200;DHT22;33094;48.782;9.162;2022-09-09T03:55:02;16.40;99.90
25200;DHT22;33094;48.782;9.162;2022-09-09T03:57:28;16.50;99.90
25200;DHT22;33094;48.782;9.162;2022-09-09T03:59:55;16.50;99.90
25200;DHT22;33094;48.782;9.162;2022-09-09T04:02:21;16.50;99.90
25200;DHT22;33094;48.782;9.162;2022-09-09T04:04:46;16.50;99.90
25200;DHT22;33094;48.782;9.162;2022-09-09T04:07:12;16.50;99.90
25200;DHT22;33094;48.782;9.162;2022-09-09T04:09:38;16.50;99.90
25200;DHT22;33094;48.782;9.162;2022-09-09T04:12:03;16.50;99.90
25200;DHT22;33094;48.782;9.162;2022-09-09T04:14:29;16.40;99.90
25200;DHT22;33094;48.782;9.162;2022-09-09T04:16:55;16.30;99.90
25200;DHT22;33094;48.782;9.162;2022-09-09T04:19:22;16.60;99.90
25200;DHT22;33094;48.782;9.162;2022-09-09T04:21:48;16.70;99.90
25200;DHT22;33094;48.782;9.162;2022-09-09T04:24:16;16.70;99.90
25200;DHT22;33094;48.782;9.162;2022-09-09T04:26:42;16.50;99.90
25200;DHT22;33094;48.782;9.162;2022-09-09T04:29:08;16.80;99.90
25200;DHT22;33094;48.782;9.162;2022-09-09T04:31:33;16.60;99.90
25200;DHT22;33094;48.782;9.162;2022-09-09T04:33:59;16.70;99.90
25200;DHT22;33094;48.782;9.162;2022-09-09T04:36:30;17.60;99.90
25200;DHT22;33094;48.782;9.162;2022-09-09T04:38:56;16.60;99.90
25200;DHT22;33094;48.782;9.162;2022-09-09T04:41:22;17.40;99.90
25200;DHT22;33094;48.782;9.162;2022-09-09T04:43:49;17.80;99.90
25200;DHT22;33094;48.782;9.162;2022-09-09T04:46:14;16.60;99.90
25200;DHT22;33094;48.782;9.162;2022-09-09T04:48:42;16.70;99.90
25200;DHT22;33094;48.782;9.162;2022-09-09T04:51:08;16.60;99.90
25200;DHT22;33094;48.782;9.162;2022-09-09T04:53:36;16.40;99.90
25200;DHT22;33094;48.782;9.162;2022-09-09T04:58:28;16.20;99.90
25200;DHT22;33094;48.782;9.162;2022-09-09T05:00:53;16.10;99.90
25200;DHT22;33094;48.782;9.162;2022-09-09T05:03:19;15.90;99.90
25200;DHT22;33094;48.782;9.162;2022-09-09T05:05:44;15.90;99.90
25200;DHT22;33094;48.782;9.162;2022-09-09T05:08:10;20.80;99.90
25200;DHT22;33094;48.782;9.162;2022-09-09T05:10:37;16.30;99.90
25200;DHT22;33094;48.782;9.162;2022-09-09T05:13:02;18.30;99.90
25200;DHT22;33094;48.782;9.162;2022-09-09T05:15:28;16.00;99.90
25200;DHT22;33094;48.782;9.162;2022-09-09T05:17:57;16.00;99.90
25200;DHT22;33094;48.782;9.162;2022-09-09T05:20:24;16.10;99.90
25200;DHT22;33094;48.782;9.162;2022-09-09T05:22:52;16.10;99.90
25200;DHT22;33094;48.782;9.162;2022-09-09T05:25:18;16.10;99.90
25200;DHT22;33094;48.782;9.162;2022-09-09T05:27:44;16.90;99.90
25200;DHT22;33094;48.782;9.162;2022-09-09T05:30:10;16.30;99.90
25200;DHT22;33094;48.782;9.162;2022-09-09T05:32:36;16.40;99.90
25200;DHT22;33094;48.782;9.162;2022-09-09T05:35:01;16.40;99.90
25200;DHT22;33094;48.782;9.162;2022-09-09T05:37:27;16.40;99.90
25200;DHT22;33094;48.782;9.162;2022-09-09T05:39:52;16.40;99.90
25200;DHT22;33094;48.782;9.162;2022-09-09T05:42:18;16.50;99.90
25200;DHT22;33094;48.782;9.162;2022-09-09T05:44:44;16.60;99.90
25200;DHT22;33094;48.782;9.162;2022-09-09T05:47:10;16.50;99.90
25200;DHT22;33094;48.782;9.162;2022-09-09T05:49:35;16.40;99.90
25200;DHT22;33094;48.782;9.162;2022-09-09T05:52:01;16.40;99.90
25200;DHT22;33094;48.782;9.162;2022-09-09T05:54:29;16.40;99.90
25200;DHT22;33094;48.782;9.162;2022-09-09T05:56:55;16.50;99.90
25200;DHT22;33094;48.782;9.162;2022-09-09T05:59:20;16.50;99.90
25200;DHT22;33094;48.782;9.162;2022-09-09T06:01:48;16.70;99.90
25200;DHT22;33094;48.782;9.162;2022-09-09T06:04:13;19.20;99.90
25200;DHT22;33094;48.782;9.162;2022-09-09T06:06:39;16.90;99.90
25200;DHT22;33094;48.782;9.162;2022-09-09T06:09:06;19.10;99.90
25200;DHT22;33094;48.782;9.162;2022-09-09T06:11:35;18.00;99.90
25200;DHT22;33094;48.782;9.162;2022-09-09T06:14:01;17.10;99.90
25200;DHT22;33094;48.782;9.162;2022-09-09T06:16:27;17.20;99.90
25200;DHT22;33094;48.782;9.162;2022-09-09T06:18:53;20.50;99.90
25200;DHT22;33094;48.782;9.162;2022-09-09T06:21:29;19.50;99.90
25200;DHT22;33094;48.782;9.162;2022-09-09T06:23:55;17.20;99.90
25200;DHT22;33094;48.782;9.162;2022-09-09T06:26:22;17.20;99.90
25200;DHT22;33094;48.782;9.162;2022-09-09T06:28:49;20.90;99.90
25200;DHT22;33094;48.782;9.162;2022-09-09T06:31:16;17.10;99.90
25200;DHT22;33094;48.782;9.162;2022-09-09T06:33:49;18.50;99.90
25200;DHT22;33094;48.782;9.162;2022-09-09T06:36:22;19.10;99.90
25200;DHT22;33094;48.782;9.162;2022-09-09T06:38:48;17.10;99.90
25200;DHT22;33094;48.782;9.162;2022-09-09T06:41:14;19.80;99.90
25200;DHT22;33094;48.782;9.162;2022-09-09T06:43:40;20.30;99.90
25200;DHT22;33094;48.782;9.162;2022-09-09T06:46:10;17.30;99.90
25200;DHT22;33094;48.782;9.162;2022-09-09T06:48:36;17.40;99.90
25200;DHT22;33094;48.782;9.162;2022-09-09T06:51:02;17.40;99.90
25200;DHT22;33094;48.782;9.162;2022-09-09T06:53:28;17.60;99.90
25200;DHT22;33094;48.782;9.162;2022-09-09T06:55:54;21.50;99.90
25200;DHT22;33094;48.782;9.162;2022-09-09T06:58:20;21.40;99.90
25200;DHT22;33094;48.782;9.162;2022-09-09T07:00:47;17.90;99.90
25200;DHT22;33094;48.782;9.162;2022-09-09T07:03:13;21.40;99.90
25200;DHT22;33094;48.782;9.162;2022-09-09T07:05:38;20.20;99.90
25200;DHT22;33094;48.782;9.162;2022-09-09T07:08:04;18.00;99.90
25200;DHT22;33094;48.782;9.162;2022-09-09T07:10:30;17.90;99.90
25200;DHT22;33094;48.782;9.162;2022-09-09T07:12:56;18.90;99.90
25200;DHT22;33094;48.782;9.162;2022-09-09T07:15:21;17.90;99.90
25200;DHT22;33094;48.782;9.162;2022-09-09T07:17:48;17.90;99.90
25200;DHT22;33094;48.782;9.162;2022-09-09T07:20:14;18.00;99.90
25200;DHT22;33094;48.782;9.162;2022-09-09T07:22:40;20.70;99.90
25200;DHT22;33094;48.782;9.162;2022-09-09T07:25:06;19.70;99.90
25200;DHT22;33094;48.782;9.162;2022-09-09T07:27:32;18.30;99.90
25200;DHT22;33094;48.782;9.162;2022-09-09T07:29:57;18.40;99.90
25200;DHT22;33094;48.782;9.162;2022-09-09T07:32:23;18.30;99.90
25200;DHT22;33094;48.782;9.162;2022-09-09T07:34:48;18.30;99.90
25200;DHT22;33094;48.782;9.162;2022-09-09T07:37:15;18.40;99.90
25200;DHT22;33094;48.782;9.162;2022-09-09T07:39:41;18.60;99.90
25200;DHT22;33094;48.782;9.162;2022-09-09T07:42:07;21.30;99.90
25200;DHT22;33094;48.782;9.162;2022-09-09T07:44:35;18.80;99.90
25200;DHT22;33094;48.782;9.162;2022-09-09T07:47:02;19.00;99.90
25200;DHT22;33094;48.782;9.162;2022-09-09T07:49:28;21.80;99.90
25200;DHT22;33094;48.782;9.162;2022-09-09T07:51:54;19.10;99.90
25200;DHT22;33094;48.782;9.162;2022-09-09T07:54:19;18.80;99.90
25200;DHT22;33094;48.782;9.162;2022-09-09T07:56:45;22.90;99.90
25200;DHT22;33094;48.782;9.162;2022-09-09T07:59:12;20.60;99.90
25200;DHT22;33094;48.782;9.162;2022-09-09T08:01:44;20.70;99.90
25200;DHT22;33094;48.782;9.162;2022-09-09T08:04:11;22.60;99.90
25200;DHT22;33094;48.782;9.162;2022-09-09T08:06:41;18.50;99.90
25200;DHT22;33094;48.782;9.162;2022-09-09T08:09:08;21.10;99.90
25200;DHT22;33094;48.782;9.162;2022-09-09T08:11:34;20.20;99.90
25200;DHT22;33094;48.782;9.162;2022-09-09T08:14:01;18.90;99.90
25200;DHT22;33094;48.782;9.162;2022-09-09T08:16:28;22.10;99.90
25200;DHT22;33094;48.782;9.162;2022-09-09T08:18:53;19.10;99.90
25200;DHT22;33094;48.782;9.162;2022-09-09T08:21:22;23.70;99.90
25200;DHT22;33094;48.782;9.162;2022-09-09T08:23:49;23.80;99.90
25200;DHT22;33094;48.782;9.162;2022-09-09T08:26:19;19.90;99.90
25200;DHT22;33094;48.782;9.162;2022-09-09T08:28:46;19.80;99.90
25200;DHT22;33094;48.782;9.162;2022-09-09T08:31:13;21.10;99.90
25200;DHT22;33094;48.782;9.162;2022-09-09T08:33:39;23.00;99.90
25200;DHT22;33094;48.782;9.162;2022-09-09T08:36:06;24.20;99.50
25200;DHT22;33094;48.782;9.162;2022-09-09T08:38:34;24.10;98.80
25200;DHT22;33094;48.782;9.162;2022-09-09T08:41:04;24.10;99.00
25200;DHT22;33094;48.782;9.162;2022-09-09T08:43:32;23.80;99.90
25200;DHT22;33094;48.782;9.162;2022-09-09T08:48:40;23.00;99.90
25200;DHT22;33094;48.782;9.162;2022-09-09T08:51:08;21.60;99.90
25200;DHT22;33094;48.782;9.162;2022-09-09T08:53:38;23.10;99.90
25200;DHT22;33094;48.782;9.162;2022-09-09T08:56:18;23.40;99.50
25200;DHT22;33094;48.782;9.162;2022-09-09T08:58:50;24.10;98.50
25200;DHT22;33094;48.782;9.162;2022-09-09T09:06:39;23.80;97.50
25200;DHT22;33094;48.782;9.162;2022-09-09T09:11:35;22.30;98.40
25200;DHT22;33094;48.782;9.162;2022-09-09T09:14:07;25.70;99.90
25200;DHT22;33094;48.782;9.162;2022-09-09T09:19:01;22.60;99.30
25200;DHT22;33094;48.782;9.162;2022-09-09T09:21:38;20.80;99.20
25200;DHT22;33094;48.782;9.162;2022-09-09T09:24:05;20.90;99.50
25200;DHT22;33094;48.782;9.162;2022-09-09T09:26:34;20.50;99.90
25200;DHT22;33094;48.782;9.162;2022-09-09T09:29:00;20.40;99.90
25200;DHT22;33094;48.782;9.162;2022-09-09T09:31:28;22.80;99.90
25200;DHT22;33094;48.782;9.162;2022-09-09T09:33:54;19.90;99.90
25200;DHT22;33094;48.782;9.162;2022-09-09T09:36:20;19.70;99.90
25200;DHT22;33094;48.782;9.162;2022-09-09T09:38:53;23.10;99.90
25200;DHT22;33094;48.782;9.162;2022-09-09T09:41:36;18.60;99.90
25200;DHT22;33094;48.782;9.162;2022-09-09T09:44:04;19.80;99.90
25200;DHT22;33094;48.782;9.162;2022-09-09T09:46:30;27.30;99.60
25200;DHT22;33094;48.782;9.162;2022-09-09T09:49:03;23.90;98.20
25200;DHT22;33094;48.782;9.162;2022-09-09T09:51:31;23.80;98.10
25200;DHT22;33094;48.782;9.162;2022-09-09T09:54:31;24.90;96.90
25200;DHT22;33094;48.782;9.162;2022-09-09T09:56:49;24.30;97.20
25200;DHT22;33094;48.782;9.162;2022-09-09T09:59:19;24.60;96.20
25200;DHT22;33094;48.782;9.162;2022-09-09T10:01:45;24.40;96.70
25200;DHT22;33094;48.782;9.162;2022-09-09T10:06:39;24.70;96.10
25200;DHT22;33094;48.782;9.162;2022-09-09T10:09:26;25.20;95.20
25200;DHT22;33094;48.782;9.162;2022-09-09T10:17:22;25.40;95.10
25200;DHT22;33094;48.782;9.162;2022-09-09T10:20:01;26.10;94.10
25200;DHT22;33094;48.782;9.162;2022-09-09T10:22:33;26.00;94.70
25200;DHT22;33094;48.782;9.162;2022-09-09T10:28:04;25.90;95.70
25200;DHT22;33094;48.782;9.162;2022-09-09T10:30:40;25.00;96.20
25200;DHT22;33094;48.782;9.162;2022-09-09T10:39:03;24.80;96.80
25200;DHT22;33094;48.782;9.162;2022-09-09T10:42:14;27.40;94.10
25200;DHT22;33094;48.782;9.162;2022-09-09T10:44:25;26.80;95.10
25200;DHT22;33094;48.782;9.162;2022-09-09T10:47:02;27.60;94.40
25200;DHT22;33094;48.782;9.162;2022-09-09T10:52:00;24.40;96.00
25200;DHT22;33094;48.782;9.162;2022-09-09T10:57:28;22.80;98.70
25200;DHT22;33094;48.782;9.162;2022-09-09T10:59:58;24.10;97.90
25200;DHT22;33094;48.782;9.162;2022-09-09T11:02:29;24.20;97.30
25200;DHT22;33094;48.782;9.162;2022-09-09T11:05:03;27.60;94.20
25200;DHT22;33094;48.782;9.162;2022-09-09T11:07:36;27.40;94.20
25200;DHT22;33094;48.782;9.162;2022-09-09T11:10:05;27.90;96.30
25200;DHT22;33094;48.782;9.162;2022-09-09T11:12:31;25.30;96.20
25200;DHT22;33094;48.782;9.162;2022-09-09T11:15:02;24.70;96.30
25200;DHT22;33094;48.782;9.162;2022-09-09T11:20:01;23.40;97.80
25200;DHT22;33094;48.782;9.162;2022-09-09T11:44:39;20.00;98.00
25200;DHT22;33094;48.782;9.162;2022-09-09T11:52:10;19.90;98.20
25200;DHT22;33094;48.782;9.162;2022-09-09T11:57:04;20.00;97.60
25200;DHT22;33094;48.782;9.162;2022-09-09T12:09:45;24.30;93.80
25200;DHT22;33094;48.782;9.162;2022-09-09T12:14:38;21.20;95.80
25200;DHT22;33094;48.782;9.162;2022-09-09T12:17:20;20.70;96.10
25200;DHT22;33094;48.782;9.162;2022-09-09T12:19:48;21.60;94.80
25200;DHT22;33094;48.782;9.162;2022-09-09T12:24:46;25.10;92.00
25200;DHT22;33094;48.782;9.162;2022-09-09T12:27:20;25.50;91.30
25200;DHT22;33094;48.782;9.162;2022-09-09T12:29:55;25.90;91.60
25200;DHT22;33094;48.782;9.162;2022-09-09T12:35:07;26.50;90.40
25200;DHT22;33094;48.782;9.162;2022-09-09T12:37:35;26.80;90.40
25200;DHT22;33094;48.782;9.162;2022-09-09T12:40:04;25.10;90.30
25200;DHT22;33094;48.782;9.162;2022-09-09T12:42:32;25.20;90.20
25200;DHT22;33094;48.782;9.162;2022-09-09T12:45:03;23.50;91.20
25200;DHT22;33094;48.782;9.162;2022-09-09T12:50:00;21.80;93.40
25200;DHT22;33094;48.782;9.162;2022-09-09T12:52:32;22.00;93.60
25200;DHT22;33094;48.782;9.162;2022-09-09T12:55:04;21.80;94.00
25200;DHT22;33094;48.782;9.162;2022-09-09T13:00:19;22.10;94.20
25200;DHT22;33094;48.782;9.162;2022-09-09T13:02:53;22.70;93.80
25200;DHT22;33094;48.782;9.162;2022-09-09T13:05:23;25.50;91.10
25200;DHT22;33094;48.782;9.162;2022-09-09T13:07:49;24.20;92.10
25200;DHT22;33094;48.782;9.162;2022-09-09T13:10:20;22.90;92.90
25200;DHT22;33094;48.782;9.162;2022-09-09T13:12:47;22.30;93.80
25200;DHT22;33094;48.782;9.162;2022-09-09T13:15:16;22.20;93.90
25200;DHT22;33094;48.782;9.162;2022-09-09T13:17:49;22.40;94.00
25200;DHT22;33094;48.782;9.162;2022-09-09T13:20:18;22.30;93.70
25200;DHT22;33094;48.782;9.162;2022-09-09T13:27:37;22.80;93.80
25200;DHT22;33094;48.782;9.162;2022-09-09T13:33:04;22.30;94.00
25200;DHT22;33094;48.782;9.162;2022-09-09T13:35:30;22.40;94.40
25200;DHT22;33094;48.782;9.162;2022-09-09T13:42:51;22.50;93.90
25200;DHT22;33094;48.782;9.162;2022-09-09T13:47:45;22.10;93.30
25200;DHT22;33094;48.782;9.162;2022-09-09T13:55:05;22.20;92.50
25200;DHT22;33094;48.782;9.162;2022-09-09T13:57:33;22.50;92.80
25200;DHT22;33094;48.782;9.162;2022-09-09T13:59:59;22.80;92.70
25200;DHT22;33094;48.782;9.162;2022-09-09T14:04:51;22.50;92.70
25200;DHT22;33094;48.782;9.162;2022-09-09T14:07:20;22.50;92.70
25200;DHT22;33094;48.782;9.162;2022-09-09T14:09:46;21.90;93.20
25200;DHT22;33094;48.782;9.162;2022-09-09T14:14:41;22.20;93.20
25200;DHT22;33094;48.782;9.162;2022-09-09T14:19:33;22.50;92.20
25200;DHT22;33094;48.782;9.162;2022-09-09T14:21:59;22.60;92.10
25200;DHT22;33094;48.782;9.162;2022-09-09T14:24:25;22.60;92.20
25200;DHT22;33094;48.782;9.162;2022-09-09T14:26:50;22.60;92.70
25200;DHT22;33094;48.782;9.162;2022-09-09T14:31:42;21.90;92.50
25200;DHT22;33094;48.782;9.162;2022-09-09T14:36:36;22.60;92.70
25200;DHT22;33094;48.782;9.162;2022-09-09T14:41:38;22.50;92.50
25200;DHT22;33094;48.782;9.162;2022-09-09T14:44:03;21.90;92.70
25200;DHT22;33094;48.782;9.162;2022-09-09T14:46:29;22.00;92.80
25200;DHT22;33094;48.782;9.162;2022-09-09T14:48:55;22.30;92.60
25200;DHT22;33094;48.782;9.162;2022-09-09T14:51:22;22.70;92.20
25200;DHT22;33094;48.782;9.162;2022-09-09T14:53:50;22.90;92.20
25200;DHT22;33094;48.782;9.162;2022-09-09T14:56:19;22.70;91.90
25200;DHT22;33094;48.782;9.162;2022-09-09T15:01:14;22.60;91.60
25200;DHT22;33094;48.782;9.162;2022-09-09T15:03:40;22.50;91.50
25200;DHT22;33094;48.782;9.162;2022-09-09T15:18:19;21.80;91.80
25200;DHT22;33094;48.782;9.162;2022-09-09T15:25:37;21.80;92.20
25200;DHT22;33094;48.782;9.162;2022-09-09T15:28:03;21.80;92.00
25200;DHT22;33094;48.782;9.162;2022-09-09T15:30:28;21.80;92.00
25200;DHT22;33094;48.782;9.162;2022-09-09T15:32:54;21.80;92.20
25200;DHT22;33094;48.782;9.162;2022-09-09T15:35:19;21.80;92.20
25200;DHT22;33094;48.782;9.162;2022-09-09T15:37:45;21.90;92.30
25200;DHT22;33094;48.782;9.162;2022-09-09T15:40:11;21.90;92.30
25200;DHT22;33094;48.782;9.162;2022-09-09T15:42:36;21.80;92.50
25200;DHT22;33094;48.782;9.162;2022-09-09T15:45:03;21.50;92.50
25200;DHT22;33094;48.782;9.162;2022-09-09T15:47:30;21.40;92.90
25200;DHT22;33094;48.782;9.162;2022-09-09T15:49:55;21.30;93.10
25200;DHT22;33094;48.782;9.162;2022-09-09T15:52:21;21.30;93.30
25200;DHT22;33094;48.782;9.162;2022-09-09T15:54:47;21.30;93.10
25200;DHT22;33094;48.782;9.162;2022-09-09T15:57:13;21.30;93.00
25200;DHT22;33094;48.782;9.162;2022-09-09T15:59:38;21.30;93.20
25200;DHT22;33094;48.782;9.162;2022-09-09T16:02:05;21.40;92.90
25200;DHT22;33094;48.782;9.162;2022-09-09T16:07:02;21.30;92.10
25200;DHT22;33094;48.782;9.162;2022-09-09T16:09:28;21.30;92.10
25200;DHT22;33094;48.782;9.162;2022-09-09T16:21:40;21.30;92.20
25200;DHT22;33094;48.782;9.162;2022-09-09T16:28:59;21.10;92.70
25200;DHT22;33094;48.782;9.162;2022-09-09T16:31:25;21.00;92.80
25200;DHT22;33094;48.782;9.162;2022-09-09T16:33:51;21.00;93.10
25200;DHT22;33094;48.782;9.162;2022-09-09T16:48:58;20.00;95.10
25200;DHT22;33094;48.782;9.162;2022-09-09T17:17:23;18.70;96.50
25200;DHT22;33094;48.782;9.162;2022-09-09T17:35:52;18.20;97.80
25200;DHT22;33094;48.782;9.162;2022-09-09T17:38:48;18.30;98.00
25200;DHT22;33094;48.782;9.162;2022-09-09T18:46:36;18.40;99.60
25200;DHT22;33094;48.782;9.162;2022-09-09T19:00:13;18.40;99.50
25200;DHT22;33094;48.782;9.162;2022-09-09T19:02:57;18.30;99.60
25200;DHT22;33094;48.782;9.162;2022-09-09T19:05:34;18.20;99.80
25200;DHT22;33094;48.782;9.162;2022-09-09T19:13:22;18.30;99.80
25200;DHT22;33094;48.782;9.162;2022-09-09T19:23:06;18.00;99.90
25200;DHT22;33094;48.782;9.162;2022-09-09T19:30:56;18.00;99.90
25200;DHT22;33094;48.782;9.162;2022-09-09T22:41:48;17.00;99.90
25200;DHT22;33094;48.782;9.162;2022-09-09T23:03:42;16.80;99.90
25200;DHT22;33094;48.782;9.162;2022-09-09T23:06:10;16.80;99.90
25200;DHT22;33094;48.782;9.162;2022-09-09T23:08:36;16.80;99.90
25200;DHT22;33094;48.782;9.162;2022-09-09T23:11:04;16.70;99.90
25200;DHT22;33094;48.782;9.162;2022-09-09T23:13:33;16.80;99.90
25200;DHT22;33094;48.782;9.162;2022-09-09T23:15:59;16.80;99.90
25200;DHT22;33094;48.782;9.162;2022-09-09T23:23:21;15.80;99.90
25200;DHT22;33094;48.782;9.162;2022-09-09T23:25:49;15.70;99.90
25200;DHT22;33094;48.782;9.162;2022-09-09T23:28:14;15.50;99.90
25200;DHT22;33094;48.782;9.162;2022-09-09T23:30:40;15.40;99.90
25200;DHT22;33094;48.782;9.162;2022-09-09T23:35:32;14.70;99.90
25200;DHT22;33094;48.782;9.162;2022-09-09T23:42:51;14.90;99.90
25200;DHT22;33094;48.782;9.162;2022-09-09T23:45:18;15.00;99.90
25200;DHT22;33094;48.782;9.162;2022-09-09T23:47:43;15.00;99.90
25200;DHT22;33094;48.782;9.162;2022-09-09T23:50:09;15.00;99.90
25200;DHT22;33094;48.782;9.162;2022-09-09T23:52:35;15.10;99.90
25200;DHT22;33094;48.782;9.162;2022-09-09T23:55:01;15.00;99.90
25200;DHT22;33094;48.782;9.162;2022-09-09T23:57:27;15.00;99.90
